Terminal Aerodrome Forecast
Issued by NWS Wilmington, NC

Home | Current Version | Previous Version | Text Only | Print | Product List | Glossary On
Versions: 1 2 3 4 5 6 7 8 9 10 11 12 13 14 15 16 17 18 19 20 21 22 23
000
FTUS42 KILM 261722
TAFILM
TAF
KILM 261722Z 2618/2718 08011KT P6SM SCT040 SCT070
     FM270100 07005KT P6SM FEW030
     FM270800 VRB03KT P6SM BKN020
     FM271100 04004KT 4SM -DZ BKN012
     FM271500 07006KT P6SM BKN040=

USA.gov is the U.S. government's official web portal to all federal, state and local government web resources and services.